This is the latest recevied weather packets stored in our database for station/object WB6AHC-1. If no packets are shown the sender has not sent any weather packets the latest 10 day(s).
| Time | Temp. | Humidity | Pressure | Rain* | Wind** | Luminosity | Snow |
|---|---|---|---|---|---|---|---|
| 1777334266 | 18.33° C | 53% | - | 0 mm | 0 m/s | - | - |
| 1777333422 | 19.44° C | 47% | - | 0 mm | 0 m/s | - | - |
| 1777332575 | 20° C | 47% | - | 0 mm | 0 m/s | - | - |
| 1777331730 | 20° C | 48% | - | 0 mm | 0 m/s | - | - |
| 1777330886 | 20° C | 46% | - | 0 mm | 0 m/s | - | - |
| 1777330039 | 20.56° C | 46% | - | 0 mm | 0 m/s | - | - |
| 1777329195 | 20° C | 48% | - | 0 mm | 0 m/s | - | - |
| 1777328351 | 20° C | 48% | - | 0 mm | 0 m/s | - | - |
| 1777327504 | 20° C | 47% | - | 0 mm | 0 m/s | - | - |
| 1777326660 | 20.56° C | 45% | - | 0 mm | 0 m/s | - | - |
| 1777325816 | 19.44° C | 47% | - | 0 mm | 0 m/s | - | - |
| 1777324969 | 18.89° C | 48% | - | 0 mm | 0 m/s | - | - |
| 1777324125 | 18.33° C | 50% | - | 0 mm | 0 m/s | - | - |
| 1777323281 | 17.78° C | 52% | - | 0 mm | 0 m/s | - | - |
| 1777322432 | 18.89° C | 50% | - | 0 mm | 0 m/s | - | - |
| 1777321588 | 18.33° C | 49% | - | 0 mm | 0 m/s | - | - |
| 1777320744 | 17.22° C | 54% | - | 0 mm | 0 m/s | - | - |
| 1777319897 | 17.78° C | 56% | - | 0 mm | 0 m/s | - | - |
| 1777319052 | 17.22° C | 56% | - | 0 mm | 0 m/s | - | - |
| 1777318208 | 17.22° C | 56% | - | 0 mm | 0 m/s | - | - |
| 1777317361 | 16.67° C | 58% | - | 0 mm | 0 m/s | - | - |
| 1777316517 | 16.11° C | 62% | - | 0 mm | 0 m/s | - | - |
| 1777315673 | 16.11° C | 59% | - | 0 mm | 0 m/s | - | - |
| 1777314826 | 15.56° C | 61% | - | 0 mm | 0 m/s | - | - |
| 1777313982 | 15.56° C | 63% | - | 0 mm | 0 m/s | - | - |
* Rain latest hour (hover to see other rain measurements)
** Current wind speed in m/s (hover to see current wind gust speed)